METAR Reports From Nearby Airports

 

KLUD - Decatur, Texas, USA
Distance from Wildwood: WsPdWs 5mi, 8km
Aktualizacja: Aug 09, 2022 12:15am
Bezchmurnie
Bezchmurnie
 Wiatr z PdPdWs
Wiatr: PdPdWs 6 mph , 9 km/h
Temperatura: 90°F , 32°C
Punkt Rosy: 61°F , 16°C
Wilgotność: 38%
Ciśnienie: 30.02 inHg , 1016.6 hPa
Clouds: Bezchmurnie
Visibility: 7 miles , 11 km
2022/08/09 05:15 KLUD 090515Z AUTO 16005KT 7SM CLR 32/16 A3002 RMK AO2 T03160158
KXBP - Bridgeport, Texas, USA
Distance from Wildwood: ZdPdZa 11mi, 18km
Aktualizacja: Aug 09, 2022 12:15am
Mostly Cloudy
Mostly Cloudy
 Wiatr z Pd
Wiatr: Pd 6 mph , 9 km/h
Temperatura: 90°F , 32°C
Punkt Rosy: 59°F , 15°C
Wilgotność: 36%
Ciśnienie: 30.02 inHg , 1016.6 hPa
Clouds: Mostly Cloudy
Visibility: 10 miles , 16 km
Cloud details: Mostly Cloudy 12000 ft
2022/08/09 05:15 KXBP 090515Z AUTO 18005KT 10SM BKN120 32/15 A3002 RMK AO2 LTG DSNT N T03150149
 
K0F2 - Bowie, Texas, USA
Distance from Wildwood: PnPnZd 24mi, 39km
Aktualizacja: Aug 09, 2022 12:15am
Partly Cloudy
Partly Cloudy
 Wiatr z PdWs
Wiatr: PdWs 5 mph , 7 km/h
Temperatura: 84°F , 29°C
Heat Index: 85°F , 29°C
Punkt Rosy: 64°F , 18°C
Wilgotność: 51%
Ciśnienie: 30.02 inHg , 1016.6 hPa
Clouds: Partly Cloudy
Visibility: 10 miles , 16 km
Cloud details: Partly Cloudy 12000 ft
2022/08/09 05:15 K0F2 090515Z AUTO 13004KT 10SM SCT120 29/18 A3002 RMK AO2 T02900175
KDTO - Denton, Texas, USA
Distance from Wildwood: Ws 27mi, 44km
Aktualizacja: Aug 08, 2022 11:53pm
Bezchmurnie
Bezchmurnie
 Wiatr z PdPdWs
Wiatr: PdPdWs 6 mph , 9 km/h
Temperatura: 90°F , 32°C
Heat Index: 92°F , 33°C
Punkt Rosy: 64°F , 18°C
Wilgotność: 43%
Ciśnienie: 30.00 inHg , 1015.9 hPa
Clouds: Bezchmurnie
Visibility: 10 miles , 16 km
2022/08/09 04:53 KDTO 090453Z AUTO 16005KT 10SM CLR 32/18 A3000 RMK AO2 SLP146 T03170178
 
KAFW - Ft Worth/Allianc, Texas, USA
Distance from Wildwood: PdWs 29mi, 46km
Aktualizacja: Aug 08, 2022 11:53pm
Partly Cloudy
Partly Cloudy
 Wiatr z Pd
Wiatr: Pd 12 mph , 19 km/h
Temperatura: 91°F , 33°C
Punkt Rosy: 63°F , 17°C
Wilgotność: 38%
Ciśnienie: 29.99 inHg , 1015.6 hPa
Clouds: Partly Cloudy
Visibility: 10 miles , 16 km
Cloud details: Partly Cloudy 14000 ft
Partly Cloudy 30000 ft
2022/08/09 04:53 KAFW 090453Z 17010KT 10SM SCT140 SCT300 33/17 A2999 RMK AO2 SLP134 T03280172
KFTW - Fort Worth, Texas, USA
Distance from Wildwood: PdPdWs 34mi, 55km
Aktualizacja: Aug 08, 2022 11:53pm
Bezchmurnie
Bezchmurnie
 Wiatr z PdWs
Wiatr: PdWs 10 mph , 17 km/h
Temperatura: 90°F , 32°C
Heat Index: 91°F , 33°C
Punkt Rosy: 63°F , 17°C
Wilgotność: 41%
Ciśnienie: 29.99 inHg , 1015.6 hPa
Clouds: Bezchmurnie
Visibility: 10 miles , 16 km
2022/08/09 04:53 KFTW 090453Z 14009KT 10SM CLR 32/17 A2999 RMK AO2 SLP145 T03220167
 
KNFW - Fort Worth Nas, Texas, USA
Distance from Wildwood: PdPdWs 36mi, 58km
Aktualizacja: Aug 08, 2022 10:52pm
NOT Current
Partly Cloudy
Partly Cloudy
 Wiatr z PdPdWs
Wiatr: PdPdWs 7 mph , 11 km/h
Temperatura: 95°F , 35°C
Punkt Rosy: 64°F , 18°C
Wilgotność: 36%
Ciśnienie: 30.00 inHg , 1015.9 hPa
Clouds: Partly Cloudy
Visibility: 10 miles , 16 km
Cloud details: Partly Cloudy 25000 ft
2022/08/09 03:52 KNFW 090352Z 15006KT 10SM SCT250 35/18 A3000 RMK SLP141 T03460177
KGLE - Gainesville, Texas, USA
Distance from Wildwood: PnWs 38mi, 61km
Aktualizacja: Aug 09, 2022 12:15am
Mostly Cloudy
Mostly Cloudy
 Wiatr z calm
Wiatr: Cisza
Temperatura: 86°F , 30°C
Heat Index: 87°F , 31°C
Punkt Rosy: 63°F , 17°C
Wilgotność: 46%
Ciśnienie: 30.02 inHg , 1016.6 hPa
Clouds: Mostly Cloudy
Visibility: 10 miles , 16 km
Cloud details: Partly Cloudy 10000 ft
Mostly Cloudy 12000 ft
2022/08/09 05:15 KGLE 090515Z AUTO 00000KT 10SM SCT100 BKN120 30/17 A3002 RMK AO2 T02960172
 
KMWL - Mineral Wells, Texas, USA
Distance from Wildwood: PdZd 41mi, 65km
Aktualizacja: Aug 08, 2022 11:53pm
Bezchmurnie
Bezchmurnie
 Wiatr z PdPdWs
Wiatr: PdPdWs 6 mph , 9 km/h
Temperatura: 88°F , 31°C
Punkt Rosy: 59°F , 15°C
Wilgotność: 38%
Ciśnienie: 30.00 inHg , 1015.9 hPa
Clouds: Bezchmurnie
Visibility: 10 miles , 16 km
2022/08/09 04:53 KMWL 090453Z AUTO 16005KT 10SM CLR 31/15 A3000 RMK AO2 SLP141 T03060150
KDFW - Dallas/Ft Worth, Texas, USA
Distance from Wildwood: WsPdWs 45mi, 73km
Aktualizacja: Aug 08, 2022 11:53pm
Partly Cloudy
Partly Cloudy
 Wiatr z PdPdWs
Wiatr: PdPdWs 10 mph , 17 km/h
Temperatura: 91°F , 33°C
Punkt Rosy: 63°F , 17°C
Wilgotność: 38%
Ciśnienie: 29.98 inHg , 1015.2 hPa
Clouds: Partly Cloudy
Visibility: 10 miles , 16 km
Cloud details: Few Clouds 10000 ft
Partly Cloudy 25000 ft
2022/08/09 04:53 KDFW 090453Z 16009KT 10SM FEW100 SCT250 33/17 A2998 RMK AO2 SLP142 T03330167